Time;durP1;ratioP1;P1;durP2;ratioP2;P2;SDS_P1;SDS_P2;PMS_P1;PMS_P2;Temp;Humidity;BMP_temperature;BMP_pressure;BME280_temperature;BME280_humidity;BME280_pressure;Samples;Min_cycle;Max_cycle;Signal;HPM_P1;HPM_P2
2023/12/08 00:01:35;;;;;;;6.88;4.25;;;10.80;95.10;;;;;;5034966;28;20024;-45
2023/12/08 00:04:01;;;;;;;5.55;3.50;;;10.80;95.10;;;;;;5034812;28;20037;-44
2023/12/08 00:06:27;;;;;;;6.38;4.40;;;10.80;95.10;;;;;;5034018;28;20048;-44
2023/12/08 00:08:52;;;;;;;7.95;4.47;;;10.80;95.20;;;;;;5034009;28;20030;-44
2023/12/08 00:11:18;;;;;;;5.97;3.67;;;10.80;95.20;;;;;;5032533;28;20543;-44
2023/12/08 00:13:44;;;;;;;8.02;4.15;;;10.80;95.30;;;;;;5033732;28;20395;-44
2023/12/08 00:16:10;;;;;;;6.68;4.20;;;10.70;95.20;;;;;;5033849;28;20017;-45
2023/12/08 00:18:36;;;;;;;6.15;3.97;;;10.70;95.30;;;;;;5033760;28;20060;-45
2023/12/08 00:21:01;;;;;;;7.18;4.55;;;10.70;95.60;;;;;;5034021;28;20025;-44
2023/12/08 00:23:27;;;;;;;7.30;4.53;;;10.70;95.30;;;;;;5033764;28;20117;-45
2023/12/08 00:25:53;;;;;;;5.97;3.83;;;10.70;95.40;;;;;;5034440;28;20387;-44
2023/12/08 00:28:18;;;;;;;5.68;3.97;;;10.60;95.40;;;;;;5033591;28;20037;-43
2023/12/08 00:30:45;;;;;;;5.70;3.75;;;10.60;95.40;;;;;;5033710;28;20108;-44
2023/12/08 00:33:10;;;;;;;6.57;4.20;;;10.60;95.40;;;;;;5034346;28;20025;-45
2023/12/08 00:35:36;;;;;;;5.50;4.07;;;10.60;95.50;;;;;;5034715;28;20383;-45
2023/12/08 00:38:03;;;;;;;5.45;3.80;;;10.60;95.80;;;;;;5034095;28;20479;-45
2023/12/08 00:40:28;;;;;;;5.57;3.88;;;10.60;95.50;;;;;;5034123;28;20025;-44
2023/12/08 00:42:54;;;;;;;5.20;3.83;;;10.60;95.50;;;;;;5033309;28;20483;-44
2023/12/08 00:45:21;;;;;;;5.70;3.78;;;10.50;95.50;;;;;;5033515;28;20021;-44
2023/12/08 00:47:46;;;;;;;6.13;4.13;;;10.50;95.50;;;;;;5033712;28;20052;-44
2023/12/08 00:50:12;;;;;;;5.70;3.90;;;10.50;95.60;;;;;;5034117;28;20479;-45
2023/12/08 00:52:38;;;;;;;4.90;3.90;;;10.50;95.60;;;;;;5033293;28;20420;-45
2023/12/08 00:55:04;;;;;;;5.25;3.78;;;10.50;96.00;;;;;;5033188;28;20049;-45
2023/12/08 00:57:30;;;;;;;6.05;3.92;;;10.50;95.60;;;;;;5033377;28;20036;-44
2023/12/08 00:59:57;;;;;;;5.65;3.63;;;10.50;95.70;;;;;;5033374;28;20096;-45
2023/12/08 01:02:22;;;;;;;5.20;3.67;;;10.50;95.70;;;;;;5033314;28;20038;-44
2023/12/08 01:04:48;;;;;;;5.75;3.70;;;10.50;95.70;;;;;;5032992;28;20060;-44
2023/12/08 01:07:14;;;;;;;4.50;3.30;;;10.50;95.70;;;;;;5033062;28;20030;-44
2023/12/08 01:09:39;;;;;;;4.85;3.58;;;10.50;95.70;;;;;;5032737;28;20025;-44
2023/12/08 01:12:05;;;;;;;4.72;3.70;;;10.40;96.10;;;;;;5032807;28;20029;-44
2023/12/08 01:14:31;;;;;;;5.28;3.70;;;10.40;95.80;;;;;;5032827;28;20018;-45
2023/12/08 01:16:57;;;;;;;5.00;3.70;;;10.40;95.80;;;;;;5032931;28;20067;-45
2023/12/08 01:19:22;;;;;;;6.38;3.70;;;10.40;95.80;;;;;;5032960;28;20025;-45
2023/12/08 01:21:48;;;;;;;4.55;3.45;;;10.40;95.80;;;;;;5032871;28;20124;-44
2023/12/08 01:24:15;;;;;;;6.30;3.83;;;10.40;95.90;;;;;;5032896;28;20034;-44
2023/12/08 01:26:44;;;;;;;4.97;3.38;;;10.40;95.90;;;;;;5032678;28;20029;-44
2023/12/08 01:29:10;;;;;;;5.03;3.45;;;10.40;95.90;;;;;;5033934;28;20091;-45
2023/12/08 01:31:36;;;;;;;4.70;3.35;;;10.40;95.90;;;;;;5032411;28;20541;-44
2023/12/08 01:34:01;;;;;;;5.30;3.88;;;10.40;95.90;;;;;;5032820;28;20029;-45
2023/12/08 01:36:27;;;;;;;5.45;3.67;;;10.40;95.90;;;;;;5032826;28;20060;-44
2023/12/08 01:38:53;;;;;;;5.70;3.65;;;10.30;95.90;;;;;;5032223;28;20021;-44
2023/12/08 01:41:19;;;;;;;5.13;3.60;;;10.40;95.90;;;;;;5032813;28;20034;-44
2023/12/08 01:43:45;;;;;;;5.47;3.38;;;10.30;96.00;;;;;;5032318;28;20031;-44
2023/12/08 01:46:20;;;;;;;5.70;3.58;;;10.30;96.00;;;;;;5032082;28;20047;-45
2023/12/08 01:48:47;;;;;;;5.55;3.42;;;10.40;96.00;;;;;;5032361;28;20391;-45
2023/12/08 01:51:14;;;;;;;4.68;3.42;;;10.30;96.00;;;;;;5032354;28;20079;-44
2023/12/08 01:53:41;;;;;;;5.10;3.58;;;10.30;96.00;;;;;;5031977;28;20086;-44
2023/12/08 01:56:08;;;;;;;5.43;3.60;;;10.30;96.00;;;;;;5032389;28;20021;-44
2023/12/08 01:58:34;;;;;;;5.53;3.67;;;10.30;96.00;;;;;;5032036;28;20025;-44
2023/12/08 02:01:06;;;;;;;6.03;3.50;;;10.30;96.00;;;;;;5031883;28;20056;-44
2023/12/08 02:03:35;;;;;;;5.15;3.63;;;10.30;96.10;;;;;;5032884;28;20105;-45
2023/12/08 02:06:01;;;;;;;5.72;3.75;;;10.30;96.10;;;;;;5032175;28;20029;-45
2023/12/08 02:08:28;;;;;;;5.50;3.78;;;10.30;96.10;;;;;;5032280;28;20040;-45
2023/12/08 02:10:54;;;;;;;5.30;3.70;;;10.30;96.10;;;;;;5031689;28;20534;-45
2023/12/08 02:13:21;;;;;;;5.88;3.55;;;10.20;96.10;;;;;;5033398;28;20053;-43
2023/12/08 02:15:52;;;;;;;4.68;3.28;;;10.20;96.10;;;;;;5032547;28;20025;-45
2023/12/08 02:18:20;;;;;;;5.45;3.85;;;10.30;96.20;;;;;;5031770;28;20063;-44
2023/12/08 02:20:46;;;;;;;5.03;3.28;;;10.20;96.20;;;;;;5032428;28;20029;-44
2023/12/08 02:23:12;;;;;;;4.68;3.70;;;10.20;96.10;;;;;;5032297;28;20111;-44
2023/12/08 02:25:37;;;;;;;6.82;3.50;;;10.20;96.10;;;;;;5031752;28;20562;-45
2023/12/08 02:28:04;;;;;;;6.25;3.53;;;10.20;96.20;;;;;;5031649;28;20017;-44
2023/12/08 02:30:30;;;;;;;6.35;3.80;;;10.20;96.20;;;;;;5031824;28;20025;-44
2023/12/08 02:33:06;;;;;;;5.07;3.30;;;10.20;96.20;;;;;;5032686;28;20021;-45
2023/12/08 02:35:35;;;;;;;5.30;3.28;;;10.20;96.20;;;;;;5031415;28;20025;-45
2023/12/08 02:38:01;;;;;;;6.55;3.70;;;10.20;96.20;;;;;;5031408;28;20117;-45
2023/12/08 02:40:27;;;;;;;5.75;3.63;;;10.20;96.20;;;;;;5031568;28;20431;-44
2023/12/08 02:42:54;;;;;;;6.07;3.88;;;10.20;96.20;;;;;;5031687;28;20120;-45
2023/12/08 02:45:19;;;;;;;4.55;3.10;;;10.20;96.20;;;;;;5031697;28;20387;-44
2023/12/08 02:47:45;;;;;;;6.40;3.65;;;10.20;96.20;;;;;;5031041;28;20026;-44
2023/12/08 02:50:11;;;;;;;4.90;3.20;;;10.20;96.20;;;;;;5031151;28;20471;-44
2023/12/08 02:52:36;;;;;;;5.65;3.50;;;10.20;96.20;;;;;;5031184;28;20037;-44
2023/12/08 02:55:02;;;;;;;6.13;3.05;;;10.20;96.20;;;;;;5032407;28;20030;-44
2023/12/08 02:57:28;;;;;;;4.80;3.38;;;10.20;96.20;;;;;;5031177;28;20120;-45
2023/12/08 02:59:53;;;;;;;4.60;3.03;;;10.20;96.20;;;;;;5031154;28;20068;-45
2023/12/08 03:02:19;;;;;;;5.32;3.20;;;10.20;96.20;;;;;;5031326;28;20029;-44
2023/12/08 03:04:45;;;;;;;5.03;2.78;;;10.10;96.30;;;;;;5032115;28;20382;-44
2023/12/08 03:07:12;;;;;;;6.10;3.47;;;10.10;96.20;;;;;;5032234;28;20030;-44
2023/12/08 03:09:37;;;;;;;5.22;3.08;;;10.20;96.30;;;;;;5031788;28;20064;-44
2023/12/08 03:12:03;;;;;;;5.57;3.40;;;10.20;96.30;;;;;;5031234;28;20049;-45
2023/12/08 03:14:29;;;;;;;4.30;3.00;;;10.10;96.30;;;;;;5031075;28;20380;-44
2023/12/08 03:16:54;;;;;;;4.68;2.78;;;10.20;96.30;;;;;;5030861;28;20029;-44
2023/12/08 03:19:20;;;;;;;4.72;3.10;;;10.10;96.30;;;;;;5031373;28;20025;-44
2023/12/08 03:21:46;;;;;;;4.95;3.20;;;10.10;96.30;;;;;;5031201;28;20407;-44
2023/12/08 03:24:11;;;;;;;5.35;3.33;;;10.20;96.40;;;;;;5031112;28;20029;-44
2023/12/08 03:26:38;;;;;;;3.97;3.13;;;10.10;96.30;;;;;;5030932;28;20108;-45
2023/12/08 03:29:04;;;;;;;4.60;2.80;;;10.10;96.40;;;;;;5030777;28;20025;-45
2023/12/08 03:31:31;;;;;;;4.57;3.15;;;10.10;96.40;;;;;;5030563;28;20033;-45
2023/12/08 03:33:56;;;;;;;4.53;2.97;;;10.10;96.40;;;;;;5031300;28;20464;-45
2023/12/08 03:36:22;;;;;;;5.22;2.90;;;10.10;96.40;;;;;;5031061;28;20030;-44
2023/12/08 03:38:48;;;;;;;3.58;2.70;;;10.10;96.40;;;;;;5031078;28;20048;-45
2023/12/08 03:41:14;;;;;;;4.72;2.88;;;10.10;96.40;;;;;;5030822;28;20029;-45
2023/12/08 03:43:40;;;;;;;3.53;2.60;;;10.10;96.40;;;;;;5030884;28;20123;-45
2023/12/08 03:46:06;;;;;;;5.03;3.20;;;10.10;96.40;;;;;;5032004;28;20030;-45
2023/12/08 03:48:32;;;;;;;4.78;2.92;;;10.10;96.40;;;;;;5034657;28;20323;-44
2023/12/08 03:50:57;;;;;;;3.80;2.65;;;10.10;96.40;;;;;;5034335;28;20036;-45
2023/12/08 03:53:24;;;;;;;5.03;3.00;;;10.10;96.40;;;;;;5034403;28;20104;-44
2023/12/08 03:55:49;;;;;;;3.25;2.50;;;10.10;96.50;;;;;;5034311;28;20017;-45
2023/12/08 03:58:15;;;;;;;5.43;3.20;;;10.00;96.40;;;;;;5034240;28;20514;-44
2023/12/08 04:00:41;;;;;;;4.70;2.80;;;10.10;96.50;;;;;;5034473;28;20025;-45
2023/12/08 04:03:06;;;;;;;5.15;2.72;;;10.10;96.50;;;;;;5034850;28;20092;-46
2023/12/08 04:05:32;;;;;;;5.07;2.85;;;10.00;96.50;;;;;;5035789;28;20034;-45
2023/12/08 04:07:57;;;;;;;4.82;2.88;;;10.00;96.50;;;;;;5034045;28;20040;-44
2023/12/08 04:10:23;;;;;;;3.85;2.72;;;10.00;96.50;;;;;;5033981;28;20100;-45
2023/12/08 04:12:49;;;;;;;4.18;2.88;;;10.10;96.50;;;;;;5033990;28;20113;-45
2023/12/08 04:15:14;;;;;;;3.90;2.58;;;10.00;96.50;;;;;;5034404;28;20084;-44
2023/12/08 04:17:40;;;;;;;4.13;2.67;;;10.00;96.50;;;;;;5033841;28;20018;-44
2023/12/08 04:20:06;;;;;;;5.30;3.00;;;10.00;96.50;;;;;;5034612;28;20029;-44
2023/12/08 04:22:32;;;;;;;4.88;2.72;;;10.00;96.50;;;;;;5034278;28;20045;-44
2023/12/08 04:24:57;;;;;;;3.38;2.47;;;10.00;96.50;;;;;;5034706;28;20037;-44
2023/12/08 04:27:23;;;;;;;4.28;2.67;;;10.00;96.50;;;;;;5034622;28;20029;-45
2023/12/08 04:29:49;;;;;;;4.95;3.20;;;10.00;96.50;;;;;;5034496;28;20056;-45
2023/12/08 04:32:15;;;;;;;3.75;2.35;;;10.00;96.60;;;;;;5033694;28;20044;-44
2023/12/08 04:34:40;;;;;;;4.07;2.60;;;10.00;96.50;;;;;;5033823;28;20037;-44
2023/12/08 04:37:06;;;;;;;3.30;2.45;;;10.00;96.60;;;;;;5033645;28;20036;-45
2023/12/08 04:39:31;;;;;;;4.13;2.75;;;10.00;96.60;;;;;;5033724;28;20029;-45
2023/12/08 04:41:57;;;;;;;4.45;2.80;;;10.00;96.60;;;;;;5033412;28;20108;-43
2023/12/08 04:44:23;;;;;;;4.50;2.58;;;10.00;96.60;;;;;;5033950;28;20032;-44
2023/12/08 04:46:48;;;;;;;4.18;2.80;;;10.00;96.60;;;;;;5033638;28;20108;-45
2023/12/08 04:49:14;;;;;;;5.13;2.58;;;10.00;96.70;;;;;;5034182;28;20407;-45
2023/12/08 04:51:43;;;;;;;2.67;2.17;;;10.00;96.60;;;;;;5033445;28;20079;-45
2023/12/08 04:54:09;;;;;;;3.85;2.65;;;10.00;96.60;;;;;;5033582;28;20048;-44
2023/12/08 04:56:34;;;;;;;3.33;2.40;;;10.00;96.70;;;;;;5032993;28;20030;-45
2023/12/08 04:59:00;;;;;;;2.90;2.30;;;10.00;96.70;;;;;;5032160;28;20026;-44
2023/12/08 05:01:25;;;;;;;3.17;2.25;;;10.00;96.70;;;;;;5033080;28;20029;-44
2023/12/08 05:03:51;;;;;;;3.28;2.40;;;10.00;96.70;;;;;;5034168;28;20403;-44
2023/12/08 05:06:17;;;;;;;3.90;2.75;;;10.00;96.70;;;;;;5032924;28;20360;-45
2023/12/08 05:08:43;;;;;;;2.65;2.17;;;10.00;96.70;;;;;;5033793;28;20044;-44
2023/12/08 05:11:08;;;;;;;3.63;2.60;;;10.00;96.70;;;;;;5032671;28;20026;-45
2023/12/08 05:13:34;;;;;;;4.18;2.20;;;10.00;96.70;;;;;;5033429;28;20071;-44
2023/12/08 05:16:00;;;;;;;3.55;2.40;;;10.00;96.70;;;;;;5032804;28;20029;-44
2023/12/08 05:18:26;;;;;;;3.75;2.35;;;10.00;96.80;;;;;;5032782;28;20534;-44
2023/12/08 05:20:51;;;;;;;3.78;2.28;;;10.00;96.80;;;;;;5032736;28;20048;-44
2023/12/08 05:23:18;;;;;;;2.90;2.20;;;10.00;96.80;;;;;;5032683;28;20116;-45
2023/12/08 05:25:44;;;;;;;4.00;2.30;;;10.00;96.80;;;;;;5032785;28;20047;-44
2023/12/08 05:28:09;;;;;;;4.53;2.33;;;10.00;96.80;;;;;;5033581;28;20104;-44
2023/12/08 05:30:35;;;;;;;3.80;2.58;;;10.00;96.80;;;;;;5034072;28;20021;-45
2023/12/08 05:33:01;;;;;;;3.20;2.40;;;10.00;96.80;;;;;;5032583;28;20029;-45
2023/12/08 05:35:27;;;;;;;3.05;2.28;;;10.00;96.80;;;;;;5032973;28;20120;-44
2023/12/08 05:37:52;;;;;;;3.45;2.40;;;10.00;96.80;;;;;;5032348;28;20044;-46
2023/12/08 05:40:21;;;;;;;3.15;2.60;;;10.00;96.80;;;;;;5032693;28;20121;-44
2023/12/08 05:42:46;;;;;;;3.38;2.33;;;10.00;96.80;;;;;;5032559;28;20080;-45
2023/12/08 05:45:12;;;;;;;2.83;2.20;;;10.00;96.90;;;;;;5032928;28;20034;-44
2023/12/08 05:47:38;;;;;;;3.28;2.42;;;10.00;96.90;;;;;;5032373;28;20040;-45
2023/12/08 05:50:04;;;;;;;4.15;2.75;;;10.00;96.90;;;;;;5031062;28;20480;-44
2023/12/08 05:52:30;;;;;;;3.75;2.53;;;9.90;96.80;;;;;;5032660;28;20097;-45
2023/12/08 05:54:55;;;;;;;3.30;2.40;;;10.00;96.90;;;;;;5032793;28;20112;-45
2023/12/08 05:57:22;;;;;;;3.00;2.20;;;10.00;96.90;;;;;;5032520;28;20036;-44
2023/12/08 05:59:47;;;;;;;3.78;2.50;;;10.00;96.90;;;;;;5031776;28;20025;-44
2023/12/08 06:02:13;;;;;;;2.67;2.20;;;10.00;96.90;;;;;;5032726;28;20048;-44
2023/12/08 06:04:39;;;;;;;3.72;2.45;;;10.00;96.90;;;;;;5032728;28;20056;-44
2023/12/08 06:07:05;;;;;;;3.10;2.50;;;10.00;96.90;;;;;;5030533;28;20108;-44
2023/12/08 06:09:30;;;;;;;2.80;2.28;;;9.90;96.90;;;;;;5031652;28;20032;-44
2023/12/08 06:11:56;;;;;;;3.38;2.47;;;10.00;96.90;;;;;;5032435;28;20039;-44
2023/12/08 06:14:21;;;;;;;4.03;3.03;;;9.90;96.90;;;;;;5031874;28;20067;-45
2023/12/08 06:16:47;;;;;;;4.65;2.90;;;9.90;96.90;;;;;;5032272;28;20030;-45
2023/12/08 06:19:13;;;;;;;3.38;2.50;;;10.00;96.90;;;;;;5032009;28;20029;-45
2023/12/08 06:21:38;;;;;;;3.60;2.40;;;9.90;97.00;;;;;;5031512;28;20441;-44
2023/12/08 06:24:04;;;;;;;3.25;2.30;;;9.90;97.00;;;;;;5031666;28;20033;-44
2023/12/08 06:26:30;;;;;;;3.80;2.50;;;9.90;97.00;;;;;;5031510;28;20395;-44
2023/12/08 06:28:55;;;;;;;3.58;2.60;;;9.90;97.00;;;;;;5032679;28;20068;-45
2023/12/08 06:31:21;;;;;;;3.17;2.40;;;9.90;97.00;;;;;;5031431;28;20108;-44
2023/12/08 06:33:47;;;;;;;3.33;2.42;;;9.90;97.00;;;;;;5031459;28;20148;-44
2023/12/08 06:36:12;;;;;;;4.80;2.70;;;9.90;97.00;;;;;;5032032;28;20025;-44
2023/12/08 06:38:38;;;;;;;4.10;2.60;;;9.90;97.00;;;;;;5031742;28;20034;-45
2023/12/08 06:41:04;;;;;;;2.55;2.22;;;9.90;97.00;;;;;;5031332;28;20549;-44
2023/12/08 06:43:30;;;;;;;3.70;2.58;;;9.90;97.00;;;;;;5031270;28;20021;-45
2023/12/08 06:45:56;;;;;;;3.58;2.40;;;9.90;97.10;;;;;;5031233;28;20491;-44
2023/12/08 06:48:23;;;;;;;3.30;2.45;;;9.90;97.00;;;;;;5031326;28;20033;-44
2023/12/08 06:50:52;;;;;;;3.78;2.80;;;9.90;97.00;;;;;;5032079;28;20053;-44
2023/12/08 06:53:17;;;;;;;3.30;2.72;;;9.90;97.00;;;;;;5031295;28;20502;-45
2023/12/08 06:55:43;;;;;;;4.15;2.60;;;9.90;97.00;;;;;;5031038;28;20029;-45
2023/12/08 06:58:09;;;;;;;3.70;2.50;;;9.90;97.00;;;;;;5031122;28;20097;-44
2023/12/08 07:00:34;;;;;;;2.72;2.35;;;9.90;97.10;;;;;;5031156;28;20034;-45
2023/12/08 07:03:00;;;;;;;3.13;2.40;;;9.90;97.20;;;;;;5031206;28;20030;-45
2023/12/08 07:05:26;;;;;;;2.63;2.20;;;10.00;97.60;;;;;;5031092;28;20030;-45
2023/12/08 07:07:51;;;;;;;2.92;2.47;;;10.00;97.30;;;;;;5031052;28;20021;-44
2023/12/08 07:10:17;;;;;;;3.63;2.45;;;10.00;97.30;;;;;;5030879;28;20087;-44
2023/12/08 07:12:43;;;;;;;3.10;2.33;;;10.10;97.30;;;;;;5031539;28;20029;-44
2023/12/08 07:15:12;;;;;;;4.85;2.80;;;10.10;97.20;;;;;;5031204;28;20436;-44
2023/12/08 07:17:38;;;;;;;3.53;2.60;;;10.10;97.20;;;;;;5030936;28;20111;-45
2023/12/08 07:20:06;;;;;;;3.17;2.40;;;10.20;97.20;;;;;;5030953;28;20507;-45
2023/12/08 07:22:32;;;;;;;3.35;2.25;;;10.20;97.10;;;;;;5034491;28;20037;-44
2023/12/08 07:24:59;;;;;;;3.45;2.38;;;10.30;97.10;;;;;;5034864;28;20032;-45
2023/12/08 07:27:24;;;;;;;2.95;2.40;;;10.30;97.00;;;;;;5034786;28;20036;-44
2023/12/08 07:29:50;;;;;;;3.30;2.40;;;10.40;96.90;;;;;;5035327;28;20033;-45
2023/12/08 07:32:15;;;;;;;3.15;2.15;;;10.40;96.80;;;;;;5034840;28;20018;-44
2023/12/08 07:34:41;;;;;;;3.78;2.53;;;10.50;96.80;;;;;;5035111;28;20028;-44
2023/12/08 07:37:07;;;;;;;3.60;2.50;;;10.50;96.70;;;;;;5034541;28;20029;-44
2023/12/08 07:39:32;;;;;;;3.22;2.38;;;10.60;96.70;;;;;;5034474;28;20036;-45
2023/12/08 07:41:58;;;;;;;3.40;2.42;;;10.60;96.60;;;;;;5035456;28;20030;-44
2023/12/08 07:44:24;;;;;;;3.65;2.53;;;10.60;96.50;;;;;;5034546;28;20515;-44
2023/12/08 07:46:49;;;;;;;2.95;2.03;;;10.70;96.40;;;;;;5034977;28;20057;-45
2023/12/08 07:49:15;;;;;;;2.67;2.22;;;10.80;96.40;;;;;;5034654;28;20075;-45
2023/12/08 07:51:41;;;;;;;3.75;2.60;;;10.80;96.30;;;;;;5035568;28;20482;-44
2023/12/08 07:54:06;;;;;;;3.00;2.38;;;10.80;96.20;;;;;;5034677;28;20025;-44
2023/12/08 07:56:33;;;;;;;4.47;2.35;;;10.90;96.20;;;;;;5035577;28;20083;-45
2023/12/08 07:58:59;;;;;;;3.20;2.28;;;10.90;96.20;;;;;;5035305;28;20029;-44
2023/12/08 08:01:25;;;;;;;2.72;2.08;;;10.90;96.10;;;;;;5036290;28;20052;-45
2023/12/08 08:03:50;;;;;;;2.72;2.25;;;10.90;96.10;;;;;;5034185;28;20033;-44
2023/12/08 08:06:16;;;;;;;2.75;2.30;;;11.00;96.00;;;;;;5034673;28;20109;-44
2023/12/08 08:08:41;;;;;;;2.60;2.13;;;11.00;96.00;;;;;;5033927;28;20065;-44
2023/12/08 08:11:08;;;;;;;2.38;1.98;;;11.00;95.90;;;;;;5034537;28;20032;-45
2023/12/08 08:13:33;;;;;;;3.67;2.50;;;11.10;95.90;;;;;;5034024;28;20057;-44
2023/12/08 08:15:59;;;;;;;2.92;2.38;;;11.10;95.90;;;;;;5033995;28;20146;-44
2023/12/08 08:18:25;;;;;;;3.70;2.38;;;11.10;95.80;;;;;;5035430;28;20022;-44
2023/12/08 08:20:50;;;;;;;2.53;1.92;;;11.20;95.80;;;;;;5034620;28;20025;-43
2023/12/08 08:23:17;;;;;;;2.50;2.15;;;11.10;95.70;;;;;;5034739;28;20119;-45
2023/12/08 08:25:43;;;;;;;3.03;2.30;;;11.20;95.70;;;;;;5033925;28;20491;-45
2023/12/08 08:28:09;;;;;;;3.47;2.20;;;11.20;95.70;;;;;;5034487;28;20561;-44
2023/12/08 08:30:35;;;;;;;3.42;2.45;;;11.20;95.70;;;;;;5033908;28;20021;-44
2023/12/08 08:33:00;;;;;;;3.65;2.40;;;11.30;95.70;;;;;;5032580;28;20032;-45
2023/12/08 08:35:26;;;;;;;3.58;2.53;;;11.30;95.60;;;;;;5034315;28;20513;-44
2023/12/08 08:37:52;;;;;;;3.38;2.40;;;11.30;95.60;;;;;;5034433;28;20040;-45
2023/12/08 08:40:17;;;;;;;3.28;2.22;;;11.30;95.60;;;;;;5033736;28;20026;-45
2023/12/08 08:42:43;;;;;;;6.43;2.90;;;11.40;95.60;;;;;;5033452;28;20099;-43
2023/12/08 08:45:09;;;;;;;4.82;3.53;;;11.40;95.50;;;;;;5033694;28;20117;-44
2023/12/08 08:47:34;;;;;;;8.80;4.18;;;11.40;95.60;;;;;;5033984;28;20454;-41
2023/12/08 08:50:00;;;;;;;5.88;4.05;;;11.40;95.70;;;;;;5033182;28;20032;-43
2023/12/08 08:52:26;;;;;;;5.32;3.88;;;11.40;95.60;;;;;;5033304;28;20017;-44
2023/12/08 08:54:51;;;;;;;5.45;3.70;;;11.50;95.70;;;;;;5033395;28;20032;-43
2023/12/08 08:57:17;;;;;;;5.38;4.03;;;11.50;95.60;;;;;;5033566;28;20471;-43
2023/12/08 08:59:43;;;;;;;5.30;3.60;;;11.50;95.60;;;;;;5033168;28;20133;-43
2023/12/08 09:02:08;;;;;;;5.68;3.75;;;11.50;95.60;;;;;;5033259;28;20030;-44
2023/12/08 09:04:34;;;;;;;4.93;3.80;;;11.50;95.60;;;;;;5034625;28;20463;-43
2023/12/08 09:06:59;;;;;;;5.30;3.80;;;11.50;95.50;;;;;;5032885;28;20605;-43
2023/12/08 09:09:25;;;;;;;5.50;4.40;;;11.50;95.50;;;;;;5033962;28;20120;-40
2023/12/08 09:11:51;;;;;;;4.88;3.58;;;11.50;95.50;;;;;;5033093;28;20021;-43
2023/12/08 09:14:17;;;;;;;4.97;3.60;;;11.60;95.40;;;;;;5033980;28;20028;-44
2023/12/08 09:16:42;;;;;;;5.10;3.60;;;11.60;95.40;;;;;;5033590;28;20087;-43
2023/12/08 09:19:08;;;;;;;4.65;3.50;;;11.70;95.40;;;;;;5032681;28;20471;-43
2023/12/08 09:21:33;;;;;;;4.40;3.63;;;11.70;95.30;;;;;;5032422;28;20032;-43
2023/12/08 09:23:59;;;;;;;4.32;3.20;;;11.70;95.30;;;;;;5032765;28;20037;-43
2023/12/08 09:26:25;;;;;;;4.25;3.28;;;11.70;95.30;;;;;;5033147;28;20430;-43
2023/12/08 09:28:50;;;;;;;4.20;3.38;;;11.70;95.20;;;;;;5033407;28;20467;-41
2023/12/08 09:31:16;;;;;;;4.40;3.45;;;11.80;95.20;;;;;;5032595;28;20034;-43
2023/12/08 09:33:42;;;;;;;4.28;3.42;;;11.80;95.10;;;;;;5032538;28;20029;-43
2023/12/08 09:36:08;;;;;;;5.35;3.30;;;11.80;95.10;;;;;;5033077;28;20025;-43
2023/12/08 09:38:35;;;;;;;3.55;2.90;;;11.80;95.00;;;;;;5033093;28;20048;-43
2023/12/08 09:41:04;;;;;;;3.70;2.92;;;11.90;95.00;;;;;;5032518;28;20398;-43
2023/12/08 09:43:39;;;;;;;4.65;3.45;;;11.90;95.00;;;;;;5032088;28;20029;-41
2023/12/08 09:46:05;;;;;;;3.88;2.80;;;11.90;94.90;;;;;;5032899;28;20030;-41
2023/12/08 09:48:36;;;;;;;3.90;3.25;;;12.00;94.90;;;;;;5033022;28;20057;-43
2023/12/08 09:51:03;;;;;;;4.38;3.05;;;12.00;94.90;;;;;;5032135;28;20099;-44
2023/12/08 09:53:31;;;;;;;4.75;3.10;;;12.00;94.80;;;;;;5032069;28;20033;-44
2023/12/08 09:55:58;;;;;;;4.05;3.05;;;12.10;94.80;;;;;;5030589;28;20033;-44
2023/12/08 09:58:26;;;;;;;8.15;5.90;;;12.10;95.20;;;;;;5031957;28;20048;-44
2023/12/08 10:00:52;;;;;;;7.32;5.75;;;12.10;95.00;;;;;;5032116;28;20470;-44
2023/12/08 10:03:17;;;;;;;7.13;5.00;;;12.20;95.30;;;;;;5032082;28;20030;-44
2023/12/08 10:05:43;;;;;;;7.93;5.40;;;12.20;95.60;;;;;;5031959;28;20025;-44
2023/12/08 10:08:09;;;;;;;6.82;5.47;;;12.20;95.70;;;;;;5031731;28;20033;-44
2023/12/08 10:10:37;;;;;;;6.55;4.95;;;12.30;95.70;;;;;;5031695;28;20028;-44
2023/12/08 10:13:03;;;;;;;7.43;5.55;;;12.30;95.80;;;;;;5031862;28;20309;-44
2023/12/08 10:15:29;;;;;;;7.47;6.00;;;12.30;95.80;;;;;;5031697;28;20029;-44
2023/12/08 10:17:54;;;;;;;5.47;4.72;;;12.30;95.80;;;;;;5031600;28;20036;-44
2023/12/08 10:20:21;;;;;;;6.47;5.20;;;12.40;95.90;;;;;;5031664;28;20021;-44
2023/12/08 10:22:54;;;;;;;6.75;4.80;;;12.40;95.90;;;;;;5031446;28;20037;-44
2023/12/08 10:25:22;;;;;;;6.93;5.10;;;12.40;95.90;;;;;;5031840;28;20096;-44
2023/12/08 10:27:50;;;;;;;6.38;5.13;;;12.40;95.90;;;;;;5031443;28;20025;-44
2023/12/08 10:30:20;;;;;;;6.75;4.93;;;12.50;96.00;;;;;;5031456;28;20025;-44
2023/12/08 10:32:46;;;;;;;6.18;4.72;;;12.50;96.00;;;;;;5031667;28;20017;-44
2023/12/08 10:35:13;;;;;;;7.90;4.78;;;12.50;95.90;;;;;;5032017;28;20025;-44
2023/12/08 10:37:39;;;;;;;6.15;4.55;;;12.60;96.00;;;;;;5032340;28;20025;-44
2023/12/08 10:40:07;;;;;;;5.38;4.38;;;12.60;96.00;;;;;;5031335;28;20025;-44
2023/12/08 10:42:33;;;;;;;5.13;4.40;;;12.60;96.00;;;;;;5031407;28;20480;-44
2023/12/08 10:45:00;;;;;;;7.38;4.78;;;12.60;95.90;;;;;;5031768;28;20037;-43
2023/12/08 10:47:26;;;;;;;7.93;4.80;;;12.70;96.00;;;;;;5032201;28;20023;-44
2023/12/08 10:49:54;;;;;;;4.55;3.97;;;12.60;95.90;;;;;;5031956;28;20033;-42
2023/12/08 10:52:22;;;;;;;4.70;3.70;;;12.70;96.00;;;;;;5032397;28;20072;-43
2023/12/08 10:54:48;;;;;;;5.00;4.45;;;12.70;95.90;;;;;;5031088;28;20025;-43
2023/12/08 10:57:15;;;;;;;4.95;3.90;;;12.70;95.90;;;;;;5030776;28;20033;-44
2023/12/08 10:59:43;;;;;;;5.15;3.97;;;12.80;95.90;;;;;;5031120;28;20029;-42
2023/12/08 11:02:19;;;;;;;4.78;3.92;;;12.80;95.90;;;;;;5031158;28;20022;-43
2023/12/08 11:04:50;;;;;;;5.15;3.22;;;12.80;95.80;;;;;;5031176;28;20018;-44
2023/12/08 11:07:21;;;;;;;5.13;4.10;;;12.80;95.80;;;;;;5031044;28;20112;-43
2023/12/08 11:09:49;;;;;;;4.65;3.67;;;12.90;95.80;;;;;;5031102;28;20017;-42
2023/12/08 11:12:16;;;;;;;4.88;3.75;;;12.90;95.80;;;;;;5031051;28;20103;-44
2023/12/08 11:15:00;;;;;;;4.90;3.30;;;12.90;95.80;;;;;;5013290;28;20018;-41
2023/12/08 11:17:35;;;;;;;5.05;3.40;;;12.90;95.70;;;;;;5011295;28;20076;-41
2023/12/08 11:20:01;;;;;;;4.03;3.40;;;12.90;95.70;;;;;;5010027;28;20022;-42
2023/12/08 11:22:27;;;;;;;4.28;3.20;;;13.00;95.60;;;;;;5011204;28;20385;-40
2023/12/08 11:24:56;;;;;;;4.72;3.25;;;13.00;95.50;;;;;;5011178;28;20534;-43
2023/12/08 11:27:36;;;;;;;4.55;3.20;;;13.00;95.40;;;;;;5010970;28;20029;-43
2023/12/08 11:30:19;;;;;;;4.68;3.70;;;13.00;95.30;;;;;;5011284;28;20026;-43
2023/12/08 11:33:14;;;;;;;5.32;3.40;;;13.00;95.20;;;;;;5011203;28;20018;-41
2023/12/08 11:35:40;;;;;;;4.30;3.28;;;13.10;95.20;;;;;;5011026;28;20464;-41
2023/12/08 11:38:08;;;;;;;6.05;3.80;;;13.00;95.10;;;;;;5011028;28;20026;-41
2023/12/08 11:40:51;;;;;;;5.00;3.33;;;13.10;95.00;;;;;;5011015;28;20033;-43
2023/12/08 11:43:18;;;;;;;3.80;2.72;;;13.10;95.00;;;;;;5011189;28;20033;-43
2023/12/08 11:45:43;;;;;;;4.38;3.28;;;13.10;94.90;;;;;;5009631;28;20041;-44
2023/12/08 11:48:14;;;;;;;4.38;2.92;;;13.20;94.90;;;;;;5010854;28;20111;-41
2023/12/08 11:50:39;;;;;;;3.60;3.10;;;13.20;94.80;;;;;;5010886;28;20053;-43
2023/12/08 11:53:05;;;;;;;4.40;3.15;;;13.20;94.70;;;;;;5010992;28;20479;-41
2023/12/08 11:55:31;;;;;;;4.13;3.03;;;13.20;94.70;;;;;;5010955;28;20672;-41
2023/12/08 11:58:03;;;;;;;3.75;2.88;;;13.20;94.70;;;;;;5010885;28;20056;-41
2023/12/08 12:00:30;;;;;;;3.70;2.90;;;13.20;94.60;;;;;;5010864;28;20395;-43
2023/12/08 12:02:58;;;;;;;3.70;2.85;;;13.20;94.60;;;;;;5011364;28;20357;-41
2023/12/08 12:05:24;;;;;;;3.30;2.80;;;13.20;94.50;;;;;;5010906;28;20065;-41
2023/12/08 12:07:52;;;;;;;3.50;2.70;;;13.20;94.50;;;;;;5013023;28;20109;-43
2023/12/08 12:10:22;;;;;;;3.40;2.63;;;13.20;94.50;;;;;;5013090;28;20029;-42
2023/12/08 12:13:12;;;;;;;6.13;2.83;;;13.30;94.50;;;;;;5013920;28;20690;-41
2023/12/08 12:15:38;;;;;;;4.88;2.85;;;13.30;94.40;;;;;;5014791;28;20030;-40
2023/12/08 12:18:04;;;;;;;3.22;2.58;;;13.30;94.40;;;;;;5014347;28;20034;-42
2023/12/08 12:20:40;;;;;;;2.92;2.45;;;13.30;94.40;;;;;;5014115;28;20026;-40
2023/12/08 12:23:06;;;;;;;3.28;2.78;;;13.30;94.30;;;;;;5014110;28;20026;-42
2023/12/08 12:25:33;;;;;;;3.08;2.30;;;13.30;94.30;;;;;;5013947;28;20073;-40
2023/12/08 12:27:58;;;;;;;3.03;2.33;;;13.30;94.30;;;;;;5013849;28;20041;-43
2023/12/08 12:30:24;;;;;;;3.20;2.75;;;13.30;94.30;;;;;;5013792;28;20021;-41
2023/12/08 12:32:51;;;;;;;4.45;2.70;;;13.30;94.60;;;;;;5014055;28;20022;-41
2023/12/08 12:35:16;;;;;;;3.42;2.40;;;13.30;94.20;;;;;;5013906;28;20022;-42
2023/12/08 12:37:42;;;;;;;2.97;2.50;;;13.30;94.20;;;;;;5013705;28;20026;-41
2023/12/08 12:40:10;;;;;;;3.08;2.40;;;13.30;94.20;;;;;;5013775;28;20224;-39
2023/12/08 12:42:46;;;;;;;3.13;2.17;;;13.30;94.20;;;;;;5013760;28;20042;-43
2023/12/08 12:45:30;;;;;;;3.38;2.38;;;13.30;94.20;;;;;;5014097;28;20022;-41